createdAt,value
2022-08-08T00:00:52.595Z,20.80
2022-08-08T00:02:32.767Z,20.70
2022-08-08T00:05:12.992Z,20.90
2022-08-08T00:07:54.021Z,20.60
2022-08-08T00:10:29.286Z,20.60
2022-08-08T00:13:10.601Z,20.50
2022-08-08T00:15:55.941Z,20.50
2022-08-08T00:18:35.452Z,20.40
2022-08-08T00:21:07.728Z,20.40
2022-08-08T00:23:47.727Z,20.40
2022-08-08T00:26:29.433Z,20.30
2022-08-08T00:29:08.288Z,20.30
2022-08-08T00:32:20.137Z,20.30
2022-08-08T00:35:18.751Z,20.20
2022-08-08T00:38:06.427Z,20.20
2022-08-08T00:41:11.942Z,20.10
2022-08-08T00:44:49.658Z,20.10
2022-08-08T00:48:29.939Z,20.00
2022-08-08T00:51:52.049Z,19.90
2022-08-08T00:55:11.783Z,19.90
2022-08-08T00:58:38.335Z,19.80
2022-08-08T01:01:19.620Z,19.80
2022-08-08T01:05:04.669Z,19.80
2022-08-08T01:08:19.848Z,19.70
2022-08-08T01:11:37.742Z,19.70
2022-08-08T01:14:54.028Z,19.60
2022-08-08T01:18:16.291Z,19.60
2022-08-08T01:22:12.993Z,19.60
2022-08-08T01:25:08.321Z,19.50
2022-08-08T01:28:28.201Z,19.50
2022-08-08T01:32:15.377Z,19.40
2022-08-08T01:35:13.020Z,19.40
2022-08-08T01:38:55.199Z,19.40
2022-08-08T01:41:38.044Z,19.40
2022-08-08T01:44:29.864Z,19.30
2022-08-08T01:48:14.177Z,19.30
2022-08-08T01:50:17.091Z,19.20
2022-08-08T01:55:15.790Z,19.20
2022-08-08T01:56:29.409Z,19.20
2022-08-08T01:59:12.894Z,19.10
2022-08-08T02:02:09.304Z,19.10
2022-08-08T02:05:03.799Z,19.10
2022-08-08T02:08:02.341Z,19.00
2022-08-08T02:10:47.180Z,19.00
2022-08-08T02:13:54.733Z,18.90
2022-08-08T02:16:24.893Z,18.90
2022-08-08T02:19:10.001Z,18.90
2022-08-08T02:22:21.142Z,18.80
2022-08-08T02:25:11.672Z,18.80
2022-08-08T02:27:51.249Z,18.70
2022-08-08T02:30:30.527Z,18.70
2022-08-08T02:34:00.133Z,18.70
2022-08-08T02:36:41.546Z,18.60
2022-08-08T02:39:41.884Z,18.50
2022-08-08T02:43:07.467Z,18.50
2022-08-08T02:46:10.597Z,18.50
2022-08-08T02:49:09.827Z,18.40
2022-08-08T02:52:32.476Z,18.40
2022-08-08T02:55:31.794Z,18.40
2022-08-08T02:59:37.401Z,18.30
2022-08-08T03:02:59.257Z,18.30
2022-08-08T03:06:34.632Z,18.30
2022-08-08T03:09:49.206Z,18.20
2022-08-08T03:13:07.552Z,18.20
2022-08-08T03:16:35.924Z,18.10
2022-08-08T03:20:05.259Z,18.10
2022-08-08T03:22:56.143Z,18.00
2022-08-08T03:25:36.020Z,18.00
2022-08-08T03:28:11.592Z,17.90
2022-08-08T03:30:48.969Z,17.90
2022-08-08T03:33:55.788Z,17.80
2022-08-08T03:36:19.458Z,17.90
2022-08-08T03:38:57.512Z,17.80
2022-08-08T03:42:26.774Z,17.70
2022-08-08T03:44:25.284Z,17.70
2022-08-08T03:46:55.188Z,17.60
2022-08-08T03:49:57.709Z,17.70
2022-08-08T03:52:17.269Z,17.50
2022-08-08T03:55:02.058Z,17.50
2022-08-08T03:58:30.318Z,17.40
2022-08-08T04:00:30.596Z,17.40
2022-08-08T04:03:11.767Z,17.30
2022-08-08T04:05:49.688Z,17.30
2022-08-08T04:08:33.483Z,17.30
2022-08-08T04:11:17.809Z,17.20
2022-08-08T04:14:04.160Z,17.20
2022-08-08T04:16:42.389Z,17.20
2022-08-08T04:19:25.196Z,17.10
2022-08-08T04:21:58.961Z,17.10
2022-08-08T04:24:32.281Z,17.10
2022-08-08T04:27:10.421Z,17.00
2022-08-08T04:29:55.283Z,17.00
2022-08-08T04:32:30.795Z,17.00
2022-08-08T04:35:13.495Z,17.00
2022-08-08T04:37:43.615Z,17.00
2022-08-08T04:40:18.962Z,17.10
2022-08-08T04:42:57.244Z,16.90
2022-08-08T04:45:33.796Z,16.90
2022-08-08T04:48:04.593Z,16.90
2022-08-08T04:50:38.538Z,16.90
2022-08-08T04:54:36.504Z,16.90
2022-08-08T04:56:09.583Z,16.80
2022-08-08T04:58:40.448Z,16.80
2022-08-08T05:01:10.929Z,16.80
2022-08-08T05:04:08.326Z,16.80
2022-08-08T05:06:39.464Z,16.70
2022-08-08T05:09:09.924Z,16.70
2022-08-08T05:11:42.525Z,16.70
2022-08-08T05:14:19.775Z,16.70
2022-08-08T05:17:00.965Z,16.70
2022-08-08T05:20:11.231Z,16.70
2022-08-08T05:22:40.016Z,16.70
2022-08-08T05:25:09.598Z,16.70
2022-08-08T05:27:41.288Z,16.70
2022-08-08T05:30:13.001Z,16.70
2022-08-08T05:32:47.427Z,16.70
2022-08-08T05:35:23.928Z,16.70
2022-08-08T05:38:01.538Z,16.70
2022-08-08T05:40:58.206Z,16.90
2022-08-08T05:44:02.321Z,16.70
2022-08-08T05:46:23.597Z,16.70
2022-08-08T05:48:54.521Z,16.80
2022-08-08T05:51:27.364Z,16.80
2022-08-08T05:54:29.017Z,16.80
2022-08-08T05:57:08.557Z,16.80
2022-08-08T06:00:00.823Z,16.80
2022-08-08T06:03:06.203Z,16.80
2022-08-08T06:05:47.828Z,16.90
2022-08-08T06:08:33.051Z,16.90
2022-08-08T06:11:07.183Z,16.90
2022-08-08T06:13:47.104Z,17.00
2022-08-08T06:16:19.147Z,17.00
2022-08-08T06:18:57.520Z,17.00
2022-08-08T06:21:33.177Z,17.10
2022-08-08T06:24:22.767Z,17.10
2022-08-08T06:27:04.848Z,17.20
2022-08-08T06:30:00.263Z,17.30
2022-08-08T06:32:32.984Z,17.30
2022-08-08T06:36:03.798Z,17.40
2022-08-08T06:38:14.207Z,17.40
2022-08-08T06:40:48.549Z,17.50
2022-08-08T06:43:28.615Z,17.60
2022-08-08T06:46:04.989Z,17.60
2022-08-08T06:48:38.452Z,17.70
2022-08-08T06:51:11.372Z,17.80
2022-08-08T06:53:51.166Z,17.80
2022-08-08T06:56:28.624Z,17.90
2022-08-08T06:58:59.410Z,18.00
2022-08-08T07:02:27.468Z,18.00
2022-08-08T07:04:41.497Z,18.10
2022-08-08T07:07:23.150Z,18.20
2022-08-08T07:10:04.043Z,18.30
2022-08-08T07:12:47.725Z,18.30
2022-08-08T07:16:03.726Z,18.40
2022-08-08T07:18:57.608Z,18.50
2022-08-08T07:21:37.449Z,18.60
2022-08-08T07:24:13.455Z,18.70
2022-08-08T07:26:53.066Z,18.80
2022-08-08T07:30:02.655Z,19.00
2022-08-08T07:32:15.740Z,19.00
2022-08-08T07:34:59.351Z,19.10
2022-08-08T07:37:56.552Z,19.20
2022-08-08T07:40:32.631Z,19.30
2022-08-08T07:43:09.173Z,19.40
2022-08-08T07:46:05.630Z,19.50
2022-08-08T07:48:33.333Z,19.60
2022-08-08T07:51:04.187Z,19.80
2022-08-08T07:54:01.134Z,19.90
2022-08-08T07:57:03.230Z,20.00
2022-08-08T07:59:44.113Z,20.30
2022-08-08T08:02:35.348Z,20.30
2022-08-08T08:05:15.439Z,20.40
2022-08-08T08:07:53.071Z,20.50
2022-08-08T08:10:33.338Z,20.60
2022-08-08T08:13:25.497Z,20.80
2022-08-08T08:16:17.063Z,21.00
2022-08-08T08:18:55.962Z,21.10
2022-08-08T08:21:44.505Z,21.20
2022-08-08T08:24:30.628Z,21.40
2022-08-08T08:27:03.792Z,21.50
2022-08-08T08:29:36.122Z,21.60
2022-08-08T08:32:06.256Z,21.80
2022-08-08T08:34:43.432Z,21.80
2022-08-08T08:37:20.410Z,22.00
2022-08-08T08:40:01.351Z,22.10
2022-08-08T08:42:36.693Z,22.20
2022-08-08T08:45:22.916Z,22.30
2022-08-08T08:47:58.557Z,22.40
2022-08-08T08:50:34.900Z,22.50
2022-08-08T08:53:55.572Z,22.70
2022-08-08T08:56:18.301Z,22.80
2022-08-08T08:58:58.036Z,22.90
2022-08-08T09:01:36.961Z,22.90
2022-08-08T09:04:31.108Z,23.10
2022-08-08T09:07:13.697Z,23.10
2022-08-08T09:09:55.351Z,23.40
2022-08-08T09:12:30.427Z,23.40
2022-08-08T09:15:01.038Z,23.50
2022-08-08T09:17:41.896Z,23.60
2022-08-08T09:22:02.793Z,23.80
2022-08-08T09:23:17.586Z,23.90
2022-08-08T09:26:02.016Z,24.00
2022-08-08T09:28:40.618Z,24.10
2022-08-08T09:31:57.062Z,24.30
2022-08-08T09:34:37.596Z,24.40
2022-08-08T09:37:57.091Z,24.50
2022-08-08T09:40:10.816Z,24.60
2022-08-08T09:42:51.190Z,24.80
2022-08-08T09:45:55.260Z,24.90
2022-08-08T09:48:21.964Z,24.90
2022-08-08T09:50:58.096Z,25.10
2022-08-08T09:54:00.002Z,25.20
2022-08-08T09:56:25.400Z,25.30
2022-08-08T09:59:31.869Z,25.40
2022-08-08T10:02:02.769Z,25.50
2022-08-08T10:04:47.863Z,25.60
2022-08-08T10:07:20.366Z,25.80
2022-08-08T10:10:00.631Z,25.90
2022-08-08T10:12:53.209Z,25.90
2022-08-08T10:15:27.320Z,26.10
2022-08-08T10:18:09.196Z,26.30
2022-08-08T10:20:58.146Z,26.50
2022-08-08T10:23:46.056Z,26.70
2022-08-08T10:26:30.650Z,26.90
2022-08-08T10:29:06.294Z,27.20
2022-08-08T10:31:54.952Z,27.40
2022-08-08T10:34:27.544Z,27.60
2022-08-08T10:36:59.780Z,27.80
2022-08-08T10:39:53.595Z,28.10
2022-08-08T10:42:21.450Z,28.30
2022-08-08T10:45:08.019Z,28.60
2022-08-08T10:47:43.698Z,28.80
2022-08-08T10:50:15.700Z,29.00
2022-08-08T10:52:45.205Z,29.20
2022-08-08T10:55:39.885Z,29.40
2022-08-08T10:58:08.835Z,29.70
2022-08-08T11:00:53.063Z,29.90
2022-08-08T11:04:01.466Z,30.20
2022-08-08T11:06:34.537Z,30.40
2022-08-08T11:09:15.509Z,30.70
2022-08-08T11:12:04.737Z,30.90
2022-08-08T11:14:35.121Z,31.10
2022-08-08T11:17:04.885Z,31.30
2022-08-08T11:19:36.660Z,31.50
2022-08-08T11:22:07.037Z,31.70
2022-08-08T11:24:37.734Z,31.90
2022-08-08T11:27:19.318Z,32.10
2022-08-08T11:30:19.602Z,32.20
2022-08-08T11:32:41.203Z,32.40
2022-08-08T11:35:27.370Z,32.50
2022-08-08T11:38:35.387Z,32.60
2022-08-08T11:40:52.582Z,32.80
2022-08-08T11:43:25.959Z,32.90
2022-08-08T11:46:17.981Z,33.00
2022-08-08T11:48:48.055Z,33.10
2022-08-08T11:51:30.192Z,33.30
2022-08-08T11:54:27.408Z,33.40
2022-08-08T11:56:56.342Z,33.50
2022-08-08T11:59:58.840Z,33.70
2022-08-08T12:02:33.683Z,33.70
2022-08-08T12:05:06.734Z,33.90
2022-08-08T12:07:50.937Z,34.00
2022-08-08T12:10:22.449Z,34.10
2022-08-08T12:13:02.932Z,34.20
2022-08-08T12:15:41.766Z,34.20
2022-08-08T12:18:20.725Z,34.30
2022-08-08T12:20:53.024Z,34.40
2022-08-08T12:23:43.544Z,34.40
2022-08-08T12:26:27.761Z,34.50
2022-08-08T12:29:21.287Z,34.60
2022-08-08T12:32:03.557Z,34.60
2022-08-08T12:34:44.268Z,34.70
2022-08-08T12:37:20.925Z,34.60
2022-08-08T12:39:59.846Z,34.60
2022-08-08T12:42:33.865Z,34.60
2022-08-08T12:45:20.257Z,34.60
2022-08-08T12:48:09.717Z,34.60
2022-08-08T12:50:49.427Z,34.50
2022-08-08T12:53:24.748Z,34.50
2022-08-08T12:56:17.958Z,34.40
2022-08-08T12:58:51.128Z,34.40
2022-08-08T13:01:24.272Z,34.40
2022-08-08T13:04:19.175Z,34.40
2022-08-08T13:07:02.903Z,34.50
2022-08-08T13:09:57.415Z,34.50
2022-08-08T13:12:37.666Z,34.50
2022-08-08T13:15:12.192Z,34.60
2022-08-08T13:18:09.078Z,34.60
2022-08-08T13:20:32.666Z,34.60
2022-08-08T13:23:30.610Z,34.60
2022-08-08T13:25:50.987Z,34.60
2022-08-08T13:28:32.757Z,34.60
2022-08-08T13:31:03.844Z,34.60
2022-08-08T13:33:41.859Z,34.50
2022-08-08T13:36:13.670Z,34.60
2022-08-08T13:38:42.710Z,34.60
2022-08-08T13:41:16.754Z,34.60
2022-08-08T13:43:47.504Z,34.60
2022-08-08T13:46:27.019Z,34.60
2022-08-08T13:49:12.362Z,34.60
2022-08-08T13:52:00.975Z,34.60
2022-08-08T13:54:33.492Z,34.60
2022-08-08T13:57:08.588Z,34.60
2022-08-08T13:59:48.188Z,34.60
2022-08-08T14:02:23.269Z,34.50
2022-08-08T14:05:09.230Z,34.40
2022-08-08T14:07:52.583Z,34.40
2022-08-08T14:10:33.118Z,34.30
2022-08-08T14:13:30.455Z,34.30
2022-08-08T14:16:16.245Z,34.20
2022-08-08T14:18:53.903Z,34.20
2022-08-08T14:21:32.343Z,34.10
2022-08-08T14:24:09.562Z,34.00
2022-08-08T14:26:43.134Z,34.00
2022-08-08T14:29:28.900Z,33.90
2022-08-08T14:32:10.792Z,33.80
2022-08-08T14:34:42.102Z,33.70
2022-08-08T14:37:13.306Z,33.70
2022-08-08T14:39:53.775Z,33.60
2022-08-08T14:42:54.482Z,33.60
2022-08-08T14:45:33.411Z,33.60
2022-08-08T14:48:17.702Z,33.50
2022-08-08T14:51:06.481Z,33.50
2022-08-08T14:53:55.607Z,33.40
2022-08-08T14:56:26.632Z,33.30
2022-08-08T14:58:55.332Z,33.30
2022-08-08T15:01:40.964Z,33.30
2022-08-08T15:04:13.119Z,33.30
2022-08-08T15:06:42.551Z,33.30
2022-08-08T15:09:12.832Z,33.20
2022-08-08T15:11:46.041Z,33.20
2022-08-08T15:14:15.338Z,33.20
2022-08-08T15:16:45.606Z,33.20
2022-08-08T15:19:15.943Z,33.20
2022-08-08T15:21:44.754Z,33.10
2022-08-08T15:24:15.975Z,33.20
2022-08-08T15:26:52.607Z,33.10
2022-08-08T15:29:22.364Z,33.10
2022-08-08T15:32:03.140Z,33.10
2022-08-08T15:34:41.202Z,33.10
2022-08-08T15:37:10.712Z,33.10
2022-08-08T15:39:41.677Z,33.10
2022-08-08T15:42:18.138Z,33.00
2022-08-08T15:44:59.936Z,33.00
2022-08-08T15:47:28.568Z,33.00
2022-08-08T15:49:59.974Z,32.90
2022-08-08T15:52:28.733Z,33.00
2022-08-08T15:54:57.518Z,32.90
2022-08-08T15:57:27.819Z,32.90
2022-08-08T16:00:26.691Z,32.90
2022-08-08T16:02:57.845Z,32.90
2022-08-08T16:05:35.451Z,32.90
2022-08-08T16:08:06.753Z,32.90
2022-08-08T16:13:09.455Z,32.90
2022-08-08T16:13:33.986Z,32.90
2022-08-08T16:16:17.408Z,32.90
2022-08-08T16:18:56.432Z,32.90
2022-08-08T16:21:28.117Z,32.90
2022-08-08T16:23:58.789Z,32.80
2022-08-08T16:26:34.745Z,32.70
2022-08-08T16:29:09.998Z,32.70
2022-08-08T16:31:48.864Z,32.70
2022-08-08T16:34:20.680Z,32.70
2022-08-08T16:36:50.845Z,32.60
2022-08-08T16:39:59.651Z,32.60
2022-08-08T16:42:18.366Z,32.60
2022-08-08T16:44:54.678Z,32.60
2022-08-08T16:47:31.904Z,32.60
2022-08-08T16:50:14.828Z,32.60
2022-08-08T16:55:02.066Z,32.60
2022-08-08T16:55:53.024Z,32.60
2022-08-08T16:58:25.502Z,32.60
2022-08-08T17:00:58.184Z,32.60
2022-08-08T17:03:35.181Z,32.60
2022-08-08T17:06:36.870Z,32.60
2022-08-08T17:09:04.655Z,32.60
2022-08-08T17:11:39.355Z,32.60
2022-08-08T17:14:19.636Z,32.70
2022-08-08T17:16:51.774Z,32.60
2022-08-08T17:19:26.677Z,32.60
2022-08-08T17:21:55.791Z,32.60
2022-08-08T17:24:27.840Z,32.60
2022-08-08T17:26:59.819Z,32.60
2022-08-08T17:29:28.332Z,32.60
2022-08-08T17:32:05.919Z,32.60
2022-08-08T17:34:54.183Z,32.60
2022-08-08T17:37:27.563Z,32.60
2022-08-08T17:40:05.808Z,32.50
2022-08-08T17:42:46.842Z,32.50
2022-08-08T17:45:22.681Z,32.50
2022-08-08T17:47:54.791Z,32.40
2022-08-08T17:50:24.918Z,32.40
2022-08-08T17:52:54.079Z,32.30
2022-08-08T17:56:05.299Z,32.30
2022-08-08T17:58:14.595Z,32.30
2022-08-08T18:00:43.238Z,32.20
2022-08-08T18:03:18.724Z,32.20
2022-08-08T18:05:51.235Z,32.10
2022-08-08T18:08:24.470Z,32.00
2022-08-08T18:11:11.626Z,32.00
2022-08-08T18:13:42.053Z,31.90
2022-08-08T18:16:12.762Z,31.90
2022-08-08T18:18:52.779Z,31.80
2022-08-08T18:21:34.668Z,31.80
2022-08-08T18:24:17.220Z,31.70
2022-08-08T18:26:55.001Z,31.70
2022-08-08T18:29:30.172Z,31.60
2022-08-08T18:32:05.013Z,31.50
2022-08-08T18:34:36.786Z,31.40
2022-08-08T18:37:08.386Z,31.30
2022-08-08T18:39:41.032Z,31.30
2022-08-08T18:42:16.004Z,31.10
2022-08-08T18:44:55.132Z,31.00
2022-08-08T18:47:25.492Z,30.90
2022-08-08T18:49:58.947Z,30.80
2022-08-08T18:52:29.964Z,30.70
2022-08-08T18:55:10.180Z,30.60
2022-08-08T18:57:43.316Z,30.50
2022-08-08T19:00:16.875Z,30.50
2022-08-08T19:02:55.342Z,30.30
2022-08-08T19:05:31.965Z,30.20
2022-08-08T19:08:24.617Z,30.10
2022-08-08T19:10:59.951Z,30.00
2022-08-08T19:13:52.630Z,29.90
2022-08-08T19:16:20.672Z,29.80
2022-08-08T19:19:00.457Z,29.70
2022-08-08T19:21:49.514Z,29.60
2022-08-08T19:24:45.871Z,29.50
2022-08-08T19:27:08.864Z,29.40
2022-08-08T19:29:45.709Z,29.30
2022-08-08T19:32:21.852Z,29.20
2022-08-08T19:34:51.739Z,29.10
2022-08-08T19:37:42.318Z,29.00
2022-08-08T19:40:16.434Z,28.90
2022-08-08T19:42:46.321Z,28.80
2022-08-08T19:45:58.538Z,28.60
2022-08-08T19:48:05.400Z,28.50
2022-08-08T19:50:36.348Z,28.40
2022-08-08T19:53:46.761Z,28.30
2022-08-08T19:55:56.358Z,28.20
2022-08-08T19:58:25.163Z,28.10
2022-08-08T20:00:57.649Z,28.00
2022-08-08T20:04:02.320Z,27.90
2022-08-08T20:06:17.945Z,27.80
2022-08-08T20:08:48.117Z,27.70
2022-08-08T20:11:18.602Z,27.60
2022-08-08T20:14:32.211Z,27.50
2022-08-08T20:16:40.776Z,27.50
2022-08-08T20:19:09.589Z,27.30
2022-08-08T20:21:38.443Z,27.40
2022-08-08T20:24:09.075Z,27.10
2022-08-08T20:26:41.615Z,27.00
2022-08-08T20:29:16.122Z,26.90
2022-08-08T20:32:07.009Z,26.80
2022-08-08T20:34:33.166Z,26.60
2022-08-08T20:37:07.234Z,26.50
2022-08-08T20:39:41.637Z,26.40
2022-08-08T20:42:28.493Z,26.30
2022-08-08T20:44:58.972Z,26.20
2022-08-08T20:47:28.791Z,26.10
2022-08-08T20:50:10.179Z,26.00
2022-08-08T20:52:39.795Z,25.90
2022-08-08T20:55:22.502Z,25.80
2022-08-08T20:57:54.539Z,25.70
2022-08-08T21:00:27.005Z,25.60
2022-08-08T21:02:55.918Z,25.40
2022-08-08T21:05:31.890Z,25.40
2022-08-08T21:08:36.559Z,25.30
2022-08-08T21:10:50.704Z,25.20
2022-08-08T21:13:19.201Z,25.10
2022-08-08T21:16:05.373Z,25.00
2022-08-08T21:18:36.160Z,24.90
2022-08-08T21:21:20.320Z,24.90
2022-08-08T21:24:09.278Z,24.80
2022-08-08T21:26:51.179Z,24.80
2022-08-08T21:29:20.209Z,24.60
2022-08-08T21:31:58.422Z,24.60
2022-08-08T21:34:29.801Z,24.50
2022-08-08T21:37:16.054Z,24.40
2022-08-08T21:39:56.483Z,24.40
2022-08-08T21:42:27.101Z,24.30
2022-08-08T21:44:59.169Z,24.20
2022-08-08T21:48:04.549Z,24.20
2022-08-08T21:50:33.569Z,24.10
2022-08-08T21:54:36.676Z,24.00
2022-08-08T21:56:19.798Z,24.00
2022-08-08T21:58:40.601Z,24.00
2022-08-08T22:01:27.218Z,23.90
2022-08-08T22:04:00.658Z,23.80
2022-08-08T22:06:32.016Z,23.80
2022-08-08T22:09:02.821Z,23.80
2022-08-08T22:11:59.397Z,23.70
2022-08-08T22:14:28.944Z,23.60
2022-08-08T22:16:57.495Z,23.60
2022-08-08T22:20:10.534Z,23.50
2022-08-08T22:22:19.210Z,23.50
2022-08-08T22:24:47.541Z,23.40
2022-08-08T22:27:16.388Z,23.40
2022-08-08T22:30:13.845Z,23.30
2022-08-08T22:32:43.158Z,23.30
2022-08-08T22:35:23.687Z,23.30
2022-08-08T22:37:54.762Z,23.40
2022-08-08T22:40:23.994Z,23.10
2022-08-08T22:43:00.801Z,23.10
2022-08-08T22:45:31.127Z,23.10
2022-08-08T22:48:03.073Z,23.10
2022-08-08T22:50:32.611Z,23.10
2022-08-08T22:54:33.967Z,22.90
2022-08-08T22:55:58.368Z,22.90
2022-08-08T22:58:33.912Z,22.80
2022-08-08T23:02:01.750Z,22.70
2022-08-08T23:03:57.324Z,22.70
2022-08-08T23:06:26.659Z,22.60
2022-08-08T23:09:00.193Z,22.60
2022-08-08T23:12:18.856Z,22.50
2022-08-08T23:14:20.462Z,22.50
2022-08-08T23:17:10.978Z,22.40
2022-08-08T23:19:39.967Z,22.40
2022-08-08T23:22:10.452Z,22.30
2022-08-08T23:24:41.222Z,22.10
2022-08-08T23:27:11.457Z,22.30
2022-08-08T23:29:59.752Z,22.20
2022-08-08T23:32:29.481Z,22.30
2022-08-08T23:34:59.197Z,22.20
2022-08-08T23:38:01.313Z,22.00
2022-08-08T23:40:16.661Z,22.00
2022-08-08T23:42:51.378Z,22.00
2022-08-08T23:49:00.924Z,21.90
2022-08-08T23:49:08.767Z,21.90
2022-08-08T23:50:58.376Z,21.90
2022-08-08T23:54:05.195Z,21.80
2022-08-08T23:56:32.020Z,21.80
2022-08-08T23:59:02.954Z,21.70
